Time;durP1;ratioP1;P1;durP2;ratioP2;P2;SDS_P1;SDS_P2;PMS_P1;PMS_P2;Temp;Humidity;BMP_temperature;BMP_pressure;BME280_temperature;BME280_humidity;BME280_pressure;Samples;Min_cycle;Max_cycle;Signal;HPM_P1;HPM_P2
2021/06/29 00:02:00;;;;;;;12.05;10.85;;;16.10;99.90;;;;;;5054027;28;20421;-64
2021/06/29 00:04:26;;;;;;;12.75;11.50;;;16.10;99.90;;;;;;5053559;28;20032;-65
2021/06/29 00:06:52;;;;;;;13.73;11.07;;;16.10;99.90;;;;;;5052701;28;20244;-64
2021/06/29 00:09:17;;;;;;;12.27;11.00;;;16.20;99.90;;;;;;5053236;28;20036;-65
2021/06/29 00:11:44;;;;;;;13.23;11.82;;;16.20;99.90;;;;;;5052753;28;20108;-65
2021/06/29 00:14:10;;;;;;;12.45;10.88;;;16.20;99.90;;;;;;5053868;28;20025;-65
2021/06/29 00:16:36;;;;;;;9.30;8.27;;;16.20;99.90;;;;;;5052575;28;20033;-64
2021/06/29 00:19:01;;;;;;;10.02;8.73;;;16.20;99.90;;;;;;5053290;28;20041;-65
2021/06/29 00:21:27;;;;;;;10.77;9.70;;;16.20;99.90;;;;;;5053438;28;20039;-64
2021/06/29 00:23:52;;;;;;;11.02;9.77;;;16.20;99.90;;;;;;5052153;28;20024;-64
2021/06/29 00:26:18;;;;;;;12.18;9.88;;;16.20;99.90;;;;;;5053227;28;20063;-64
2021/06/29 00:28:44;;;;;;;10.80;9.70;;;16.30;99.90;;;;;;5052128;28;20033;-65
2021/06/29 00:31:09;;;;;;;10.35;9.20;;;16.30;99.90;;;;;;5053205;28;20033;-64
2021/06/29 00:33:37;;;;;;;9.63;8.68;;;16.30;99.90;;;;;;5052456;28;20446;-64
2021/06/29 00:36:04;;;;;;;10.88;9.75;;;16.30;99.90;;;;;;5052770;28;20033;-64
2021/06/29 00:38:30;;;;;;;9.48;8.52;;;16.30;99.90;;;;;;5052613;28;20378;-65
2021/06/29 00:40:56;;;;;;;9.38;8.45;;;16.40;99.90;;;;;;5052216;28;20031;-64
2021/06/29 00:43:21;;;;;;;9.02;8.13;;;16.40;99.90;;;;;;5052965;28;20029;-64
2021/06/29 00:45:47;;;;;;;7.32;6.63;;;16.40;99.90;;;;;;5051627;28;21748;-64
2021/06/29 00:48:13;;;;;;;7.53;6.93;;;16.30;99.90;;;;;;5052715;28;20035;-64
2021/06/29 00:50:40;;;;;;;7.38;6.60;;;16.40;99.90;;;;;;5051945;28;20033;-65
2021/06/29 00:53:06;;;;;;;6.28;5.72;;;16.40;99.90;;;;;;5052606;28;20029;-65
2021/06/29 00:55:32;;;;;;;6.35;5.40;;;16.40;99.90;;;;;;5051796;28;20541;-65
2021/06/29 00:57:58;;;;;;;8.10;6.50;;;16.40;99.90;;;;;;5051946;28;20082;-65
2021/06/29 01:00:42;;;;;;;6.30;5.80;;;16.40;99.90;;;;;;5051452;28;20126;-65
2021/06/29 01:03:09;;;;;;;7.45;6.82;;;16.40;99.90;;;;;;5052345;28;20029;-65
2021/06/29 01:05:35;;;;;;;8.68;7.97;;;16.40;99.90;;;;;;5051519;28;20134;-64
2021/06/29 01:08:00;;;;;;;9.10;8.18;;;16.40;99.90;;;;;;5052111;28;20467;-65
2021/06/29 01:10:26;;;;;;;11.27;8.73;;;16.40;99.90;;;;;;5052385;28;20025;-65
2021/06/29 01:12:52;;;;;;;9.23;8.27;;;16.40;99.90;;;;;;5051464;28;20021;-65
2021/06/29 01:15:25;;;;;;;9.80;8.88;;;16.50;99.90;;;;;;5051468;28;20390;-65
2021/06/29 01:17:55;;;;;;;8.77;8.00;;;16.50;99.90;;;;;;5051162;28;20117;-65
2021/06/29 01:20:27;;;;;;;7.90;7.25;;;16.50;99.90;;;;;;5052075;28;20432;-65
2021/06/29 01:23:01;;;;;;;10.30;7.35;;;16.50;99.90;;;;;;5051277;28;20090;-65
2021/06/29 01:25:30;;;;;;;8.63;7.80;;;16.50;99.90;;;;;;5051872;28;20029;-64
2021/06/29 01:28:10;;;;;;;6.68;5.60;;;16.50;99.90;;;;;;5050997;28;20158;-64
2021/06/29 01:33:21;;;;;;;6.78;6.18;;;16.50;99.90;;;;;;5051840;28;20424;-65
2021/06/29 01:35:47;;;;;;;7.03;6.32;;;16.50;99.90;;;;;;5051431;28;20029;-65
2021/06/29 01:38:20;;;;;;;6.70;6.10;;;16.50;99.90;;;;;;5051758;28;20124;-65
2021/06/29 01:40:46;;;;;;;7.53;5.65;;;16.50;99.90;;;;;;5051162;28;20044;-64
2021/06/29 01:43:13;;;;;;;6.78;5.90;;;16.50;99.90;;;;;;5051904;28;20067;-64
2021/06/29 01:45:41;;;;;;;6.30;5.70;;;16.50;99.90;;;;;;5051098;28;20053;-65
2021/06/29 01:48:17;;;;;;;6.90;6.05;;;16.50;99.90;;;;;;5051417;28;20100;-65
2021/06/29 01:50:43;;;;;;;6.28;5.68;;;16.50;99.90;;;;;;5050881;28;20028;-65
2021/06/29 01:53:08;;;;;;;5.85;5.28;;;16.40;99.90;;;;;;5051686;28;20496;-64
2021/06/29 01:55:34;;;;;;;9.15;5.72;;;16.50;99.90;;;;;;5051165;28;20056;-64
2021/06/29 01:58:00;;;;;;;7.32;4.57;;;16.50;99.90;;;;;;5051371;28;20135;-64
2021/06/29 02:00:26;;;;;;;5.55;4.93;;;16.50;99.90;;;;;;5051628;28;20029;-64
2021/06/29 02:02:51;;;;;;;4.90;4.32;;;16.60;99.90;;;;;;5050752;28;20497;-64
2021/06/29 02:05:17;;;;;;;6.55;5.07;;;16.60;99.90;;;;;;5051667;28;20481;-65
2021/06/29 02:07:43;;;;;;;7.60;4.90;;;16.60;99.90;;;;;;5050755;28;20482;-64
2021/06/29 02:10:10;;;;;;;4.80;4.40;;;16.50;99.90;;;;;;5051304;28;20403;-64
2021/06/29 02:12:35;;;;;;;5.85;4.95;;;16.50;99.90;;;;;;5050886;28;20025;-64
2021/06/29 02:15:01;;;;;;;4.93;4.50;;;16.40;99.90;;;;;;5051043;28;20389;-64
2021/06/29 02:17:27;;;;;;;6.95;4.20;;;16.40;99.90;;;;;;5051074;28;20033;-65
2021/06/29 02:19:52;;;;;;;6.03;4.55;;;16.40;99.90;;;;;;5050695;28;20041;-65
2021/06/29 02:22:18;;;;;;;7.32;4.32;;;16.40;99.90;;;;;;5051473;28;20068;-64
2021/06/29 02:24:44;;;;;;;7.28;5.00;;;16.30;99.90;;;;;;5049981;28;20057;-65
2021/06/29 02:27:09;;;;;;;8.02;5.80;;;16.30;99.90;;;;;;5051935;28;20029;-65
2021/06/29 02:29:36;;;;;;;5.80;5.22;;;16.30;99.90;;;;;;5054909;28;20078;-65
2021/06/29 02:32:01;;;;;;;5.88;5.00;;;16.40;99.90;;;;;;5054996;28;20060;-65
2021/06/29 02:34:27;;;;;;;6.03;5.10;;;16.40;99.90;;;;;;5055186;28;20063;-65
2021/06/29 02:36:53;;;;;;;7.18;5.30;;;16.40;99.90;;;;;;5054315;28;20080;-65
2021/06/29 02:39:18;;;;;;;5.47;4.97;;;16.40;99.90;;;;;;5055111;28;20036;-64
2021/06/29 02:41:44;;;;;;;6.18;5.63;;;16.40;99.90;;;;;;5054664;28;20029;-64
2021/06/29 02:44:11;;;;;;;6.32;5.72;;;16.40;99.90;;;;;;5055509;28;20029;-65
2021/06/29 02:46:37;;;;;;;7.03;5.68;;;16.40;99.90;;;;;;5054440;28;20053;-65
2021/06/29 02:49:03;;;;;;;9.13;6.40;;;16.30;99.90;;;;;;5054676;28;20423;-65
2021/06/29 02:51:28;;;;;;;6.68;6.07;;;16.30;99.90;;;;;;5055212;28;20371;-65
2021/06/29 02:53:54;;;;;;;8.55;6.45;;;16.30;99.90;;;;;;5053764;28;20916;-64
2021/06/29 02:56:39;;;;;;;8.23;7.43;;;16.30;99.90;;;;;;5054791;28;20044;-64
2021/06/29 02:59:15;;;;;;;8.05;7.25;;;16.30;99.90;;;;;;5054991;28;20037;-64
2021/06/29 03:01:42;;;;;;;8.02;7.22;;;16.30;99.90;;;;;;5052880;28;20643;-64
2021/06/29 03:04:09;;;;;;;8.00;7.30;;;16.30;99.90;;;;;;5054377;28;20035;-64
2021/06/29 03:06:35;;;;;;;8.95;7.40;;;16.30;99.90;;;;;;5054159;28;20025;-65
2021/06/29 03:09:02;;;;;;;9.13;8.13;;;16.30;99.90;;;;;;5053200;28;20039;-65
2021/06/29 03:11:28;;;;;;;8.52;7.72;;;16.30;99.90;;;;;;5054400;28;20078;-64
2021/06/29 03:13:54;;;;;;;10.85;8.07;;;16.30;99.90;;;;;;5053231;28;20100;-64
2021/06/29 03:16:19;;;;;;;8.63;7.90;;;16.30;99.90;;;;;;5053983;28;20029;-65
2021/06/29 03:18:45;;;;;;;8.93;8.10;;;16.20;99.90;;;;;;5052728;28;20029;-64
2021/06/29 03:21:11;;;;;;;10.40;8.45;;;16.30;99.90;;;;;;5053814;28;20032;-64
2021/06/29 03:23:38;;;;;;;11.10;8.75;;;16.30;99.90;;;;;;5053445;28;20060;-64
2021/06/29 03:26:04;;;;;;;8.75;8.02;;;16.30;99.90;;;;;;5053231;28;20057;-65
2021/06/29 03:28:30;;;;;;;8.80;7.68;;;16.30;99.90;;;;;;5053533;28;20027;-64
2021/06/29 03:30:56;;;;;;;8.57;6.60;;;16.30;99.90;;;;;;5052679;28;20849;-64
2021/06/29 03:33:22;;;;;;;7.55;6.65;;;16.40;99.90;;;;;;5053317;28;20033;-64
2021/06/29 03:35:47;;;;;;;7.97;7.18;;;16.40;99.90;;;;;;5052803;28;20029;-65
2021/06/29 03:38:14;;;;;;;8.50;7.25;;;16.30;99.90;;;;;;5053120;28;20021;-65
2021/06/29 03:40:39;;;;;;;8.68;7.88;;;16.30;99.90;;;;;;5053139;28;20033;-64
2021/06/29 03:43:05;;;;;;;9.32;8.07;;;16.30;99.90;;;;;;5053292;28;20025;-64
2021/06/29 03:45:31;;;;;;;9.75;8.02;;;16.30;99.90;;;;;;5053426;28;20501;-65
2021/06/29 03:47:57;;;;;;;8.85;7.70;;;16.30;99.90;;;;;;5052343;28;20826;-64
2021/06/29 03:50:25;;;;;;;9.35;8.25;;;16.30;99.90;;;;;;5053269;28;20471;-65
2021/06/29 03:52:50;;;;;;;8.85;7.95;;;16.30;99.90;;;;;;5052548;28;20021;-65
2021/06/29 03:55:16;;;;;;;9.77;8.52;;;16.30;99.90;;;;;;5053535;28;20513;-65
2021/06/29 03:57:42;;;;;;;8.98;8.18;;;16.20;99.90;;;;;;5052594;28;20025;-65
2021/06/29 04:00:09;;;;;;;9.20;8.30;;;16.30;99.90;;;;;;5054037;28;20041;-65
2021/06/29 04:02:36;;;;;;;7.97;7.25;;;16.30;99.90;;;;;;5052984;28;20032;-65
2021/06/29 04:05:03;;;;;;;8.32;7.53;;;16.30;99.90;;;;;;5052173;28;20461;-65
2021/06/29 04:07:29;;;;;;;8.55;7.75;;;16.20;99.90;;;;;;5052477;28;20025;-65
2021/06/29 04:09:55;;;;;;;8.43;7.63;;;16.30;99.90;;;;;;5052275;28;20037;-65
2021/06/29 04:12:21;;;;;;;7.68;6.97;;;16.20;99.90;;;;;;5053104;28;20025;-65
2021/06/29 04:14:47;;;;;;;7.47;6.72;;;16.30;99.90;;;;;;5052166;28;20028;-65
2021/06/29 04:17:13;;;;;;;8.18;7.00;;;16.30;99.90;;;;;;5052736;28;20027;-65
2021/06/29 04:19:40;;;;;;;8.25;7.32;;;16.30;99.90;;;;;;5052188;28;20033;-65
2021/06/29 04:22:09;;;;;;;7.72;7.00;;;16.30;99.90;;;;;;5052014;28;20040;-65
2021/06/29 04:24:35;;;;;;;8.63;6.75;;;16.30;99.90;;;;;;5052108;28;20029;-65
2021/06/29 04:27:02;;;;;;;6.57;5.95;;;16.30;99.90;;;;;;5051932;28;20624;-65
2021/06/29 04:29:28;;;;;;;7.65;5.22;;;16.30;99.90;;;;;;5052215;28;20039;-65
2021/06/29 04:31:53;;;;;;;5.38;4.72;;;16.40;99.90;;;;;;5051904;28;20025;-65
2021/06/29 04:34:19;;;;;;;6.85;6.22;;;16.50;99.90;;;;;;5053005;28;20107;-65
2021/06/29 04:36:45;;;;;;;8.07;7.38;;;16.50;99.90;;;;;;5051494;28;20485;-65
2021/06/29 04:39:11;;;;;;;9.70;8.40;;;16.50;99.90;;;;;;5052241;28;20049;-64
2021/06/29 04:41:37;;;;;;;13.52;9.68;;;16.40;99.90;;;;;;5052513;28;20021;-65
2021/06/29 04:44:03;;;;;;;13.25;10.50;;;16.40;99.90;;;;;;5051145;28;20114;-65
2021/06/29 04:46:30;;;;;;;11.18;9.93;;;16.30;99.90;;;;;;5051712;28;20037;-65
2021/06/29 04:48:56;;;;;;;11.88;10.23;;;16.30;99.90;;;;;;5051360;28;20043;-66
2021/06/29 04:51:22;;;;;;;12.00;10.48;;;16.40;99.90;;;;;;5051807;28;20025;-65
2021/06/29 04:53:47;;;;;;;11.90;10.68;;;16.30;99.90;;;;;;5050159;28;20151;-65
2021/06/29 04:56:19;;;;;;;11.90;10.70;;;16.40;99.90;;;;;;5052574;28;20426;-65
2021/06/29 04:58:52;;;;;;;12.10;10.80;;;16.40;99.90;;;;;;5051288;28;20032;-65
2021/06/29 05:01:18;;;;;;;11.38;10.07;;;16.40;99.90;;;;;;5052085;28;20056;-64
2021/06/29 05:03:44;;;;;;;10.48;9.48;;;16.50;99.90;;;;;;5051184;28;20048;-65
2021/06/29 05:06:10;;;;;;;10.05;9.05;;;16.50;99.90;;;;;;5050972;28;20041;-65
2021/06/29 05:08:36;;;;;;;9.70;8.18;;;16.50;99.90;;;;;;5051646;28;20029;-65
2021/06/29 05:11:02;;;;;;;9.50;8.60;;;16.60;99.90;;;;;;5051292;28;20050;-65
2021/06/29 05:13:27;;;;;;;9.35;8.43;;;16.60;99.90;;;;;;5051499;28;20470;-65
2021/06/29 05:15:54;;;;;;;8.35;7.38;;;16.60;99.90;;;;;;5051146;28;20029;-65
2021/06/29 05:18:19;;;;;;;8.93;7.18;;;16.60;99.90;;;;;;5051724;28;20029;-65
2021/06/29 05:20:45;;;;;;;8.00;7.28;;;16.60;99.90;;;;;;5050900;28;20063;-64
2021/06/29 05:23:11;;;;;;;12.38;6.80;;;16.70;99.90;;;;;;5051528;28;20499;-65
2021/06/29 05:25:37;;;;;;;10.73;6.93;;;16.70;99.90;;;;;;5051223;28;20128;-65
2021/06/29 05:28:03;;;;;;;8.30;7.50;;;16.70;99.90;;;;;;5050335;28;20025;-65
2021/06/29 05:30:29;;;;;;;9.80;8.50;;;16.70;99.90;;;;;;5051372;28;20029;-65
2021/06/29 05:32:54;;;;;;;8.13;7.32;;;16.70;99.90;;;;;;5050547;28;20381;-65
2021/06/29 05:35:20;;;;;;;7.78;7.07;;;16.80;99.90;;;;;;5050945;28;20017;-65
2021/06/29 05:37:46;;;;;;;8.23;7.50;;;16.80;99.90;;;;;;5050333;28;20028;-65
2021/06/29 05:40:12;;;;;;;7.57;6.90;;;16.80;99.90;;;;;;5051106;28;20468;-64
2021/06/29 05:42:37;;;;;;;8.20;7.38;;;16.90;99.90;;;;;;5051127;28;20047;-72
2021/06/29 05:45:04;;;;;;;7.90;7.10;;;16.90;99.90;;;;;;5047003;28;20533;-68
2021/06/29 05:47:33;;;;;;;8.05;7.35;;;16.80;99.90;;;;;;5048537;28;20466;-69
2021/06/29 05:49:59;;;;;;;8.73;7.20;;;16.90;99.90;;;;;;5048756;28;20360;-68
2021/06/29 05:52:25;;;;;;;9.52;7.32;;;16.90;99.90;;;;;;5050059;28;20103;-70
2021/06/29 05:54:51;;;;;;;7.68;6.90;;;16.90;99.90;;;;;;5050368;28;20507;-68
2021/06/29 05:57:17;;;;;;;7.65;6.82;;;16.90;99.90;;;;;;5051028;28;20056;-68
2021/06/29 05:59:43;;;;;;;8.23;6.15;;;16.90;99.90;;;;;;5049923;28;20029;-68
2021/06/29 06:02:10;;;;;;;7.57;5.40;;;17.00;99.90;;;;;;5054456;28;20405;-70
2021/06/29 06:04:36;;;;;;;6.68;6.07;;;17.00;99.90;;;;;;5057851;28;20033;-68
2021/06/29 06:07:03;;;;;;;5.38;4.93;;;17.10;99.90;;;;;;5056828;28;20060;-68
2021/06/29 06:09:29;;;;;;;5.55;5.05;;;17.10;99.90;;;;;;5057456;28;20493;-69
2021/06/29 06:11:55;;;;;;;8.27;5.55;;;17.20;99.90;;;;;;5056610;28;20095;-69
2021/06/29 06:14:20;;;;;;;7.25;5.10;;;17.30;99.90;;;;;;5057435;28;20116;-69
2021/06/29 06:16:46;;;;;;;5.45;4.95;;;17.40;99.90;;;;;;5056420;28;20111;-68
2021/06/29 06:19:12;;;;;;;4.93;4.50;;;17.60;99.90;;;;;;5056952;28;20041;-76
2021/06/29 06:21:37;;;;;;;6.00;4.28;;;17.70;99.90;;;;;;5056459;28;20036;-71
2021/06/29 06:24:03;;;;;;;4.90;4.05;;;17.80;99.90;;;;;;5049641;28;20049;-69
2021/06/29 06:26:29;;;;;;;5.80;4.43;;;17.90;99.90;;;;;;5058890;28;20116;-69
2021/06/29 06:28:55;;;;;;;5.13;4.10;;;18.00;99.90;;;;;;5057290;28;20116;-69
2021/06/29 06:31:20;;;;;;;5.28;4.15;;;18.10;99.90;;;;;;5057219;28;20033;-69
2021/06/29 06:33:46;;;;;;;4.40;3.20;;;18.20;99.90;;;;;;5055887;28;20435;-68
2021/06/29 06:36:11;;;;;;;4.78;3.95;;;18.30;99.90;;;;;;5057074;28;20098;-68
2021/06/29 06:38:38;;;;;;;4.43;3.40;;;18.40;99.90;;;;;;5056891;28;20493;-69
2021/06/29 06:41:03;;;;;;;4.65;2.83;;;18.50;99.90;;;;;;5050822;28;20076;-69
2021/06/29 06:43:29;;;;;;;5.80;2.92;;;18.60;99.90;;;;;;5057085;28;20060;-70
2021/06/29 06:45:55;;;;;;;3.30;2.95;;;18.70;99.90;;;;;;5056533;28;20025;-70
2021/06/29 06:48:21;;;;;;;4.35;2.92;;;18.90;99.90;;;;;;5057190;28;20079;-70
2021/06/29 06:50:46;;;;;;;6.22;2.90;;;19.00;99.90;;;;;;5056234;28;20036;-68
2021/06/29 06:53:14;;;;;;;3.45;2.88;;;19.10;99.90;;;;;;5055875;28;20103;-68
2021/06/29 06:55:40;;;;;;;3.45;2.70;;;19.20;99.90;;;;;;5056485;28;20021;-70
2021/06/29 06:58:05;;;;;;;2.70;2.45;;;19.30;99.90;;;;;;5054734;28;20437;-69
2021/06/29 07:00:31;;;;;;;3.58;2.50;;;19.40;99.90;;;;;;5054837;28;20041;-69
2021/06/29 07:02:57;;;;;;;3.80;2.42;;;19.40;99.90;;;;;;5055799;28;20435;-68
2021/06/29 07:05:23;;;;;;;2.40;1.73;;;19.50;99.90;;;;;;5056862;28;20473;-69
2021/06/29 07:07:49;;;;;;;2.10;1.85;;;19.60;99.90;;;;;;5055733;28;20025;-65
2021/06/29 07:10:15;;;;;;;2.53;2.00;;;19.70;99.90;;;;;;5056192;28;20371;-66
2021/06/29 07:12:41;;;;;;;4.22;1.70;;;19.70;99.90;;;;;;5055032;28;20080;-80
2021/06/29 07:15:08;;;;;;;2.33;1.60;;;19.80;99.90;;;;;;5052874;28;20334;-79
2021/06/29 07:17:35;;;;;;;3.15;1.45;;;19.90;99.90;;;;;;5053674;28;20036;-78
2021/06/29 07:20:00;;;;;;;3.85;1.60;;;19.90;99.90;;;;;;5052792;28;20503;-79
2021/06/29 07:22:26;;;;;;;2.45;1.67;;;19.90;99.90;;;;;;5053311;28;20057;-83
2021/06/29 07:24:52;;;;;;;5.90;1.77;;;20.00;99.90;;;;;;5057294;28;20100;-83
2021/06/29 07:27:17;;;;;;;2.03;1.83;;;20.10;99.90;;;;;;5055249;28;20032;-79
2021/06/29 07:29:43;;;;;;;2.72;1.50;;;20.10;99.90;;;;;;5053179;28;20025;-78
2021/06/29 07:32:09;;;;;;;2.38;1.35;;;20.20;99.90;;;;;;5052909;28;20040;-78
2021/06/29 07:34:35;;;;;;;2.13;1.27;;;20.30;99.90;;;;;;5053195;28;20478;-65
2021/06/29 07:37:01;;;;;;;2.70;1.60;;;20.40;99.90;;;;;;5052292;28;20041;-65
2021/06/29 07:39:27;;;;;;;1.00;0.90;;;20.50;99.90;;;;;;5051795;28;20056;-65
2021/06/29 07:41:52;;;;;;;2.28;1.30;;;20.60;99.90;;;;;;5052314;28;20032;-65
2021/06/29 07:44:18;;;;;;;2.75;1.10;;;20.70;99.90;;;;;;5053031;28;20021;-65
2021/06/29 07:46:44;;;;;;;1.10;1.00;;;20.70;99.90;;;;;;5052983;28;20039;-65
2021/06/29 07:49:09;;;;;;;1.33;1.23;;;20.80;99.90;;;;;;5052506;28;20033;-65
2021/06/29 07:51:35;;;;;;;1.05;0.90;;;20.90;99.90;;;;;;5053146;28;20060;-65
2021/06/29 07:54:01;;;;;;;1.33;0.90;;;21.00;97.40;;;;;;5051544;28;20450;-65
2021/06/29 07:56:27;;;;;;;1.20;1.00;;;21.00;93.90;;;;;;5052296;28;20033;-65
2021/06/29 07:58:52;;;;;;;1.98;0.98;;;21.10;98.30;;;;;;5050484;28;20025;-66
2021/06/29 08:01:19;;;;;;;1.77;1.10;;;21.10;98.00;;;;;;5047909;28;20188;-66
2021/06/29 08:03:45;;;;;;;2.72;1.00;;;21.20;97.80;;;;;;5045879;28;20025;-66
2021/06/29 08:06:11;;;;;;;3.38;1.10;;;21.20;96.30;;;;;;5052460;28;20060;-66
2021/06/29 08:08:37;;;;;;;1.55;0.82;;;21.40;96.00;;;;;;5051675;28;20029;-65
2021/06/29 08:11:05;;;;;;;0.95;0.85;;;21.50;95.50;;;;;;5051589;28;20044;-65
2021/06/29 08:13:30;;;;;;;2.78;1.00;;;21.60;93.80;;;;;;5051921;28;20037;-66
2021/06/29 08:15:57;;;;;;;1.38;0.98;;;21.80;92.10;;;;;;5051105;28;20021;-66
2021/06/29 08:18:23;;;;;;;1.35;0.80;;;21.90;92.10;;;;;;5051379;28;20029;-65
2021/06/29 08:20:52;;;;;;;0.80;0.80;;;22.00;92.10;;;;;;5052098;28;20111;-66
2021/06/29 08:23:18;;;;;;;1.67;0.93;;;22.00;90.40;;;;;;5051686;28;20366;-65
2021/06/29 08:25:44;;;;;;;4.57;0.80;;;22.10;89.10;;;;;;5049492;28;20025;-66
2021/06/29 08:28:13;;;;;;;1.48;0.85;;;22.20;90.70;;;;;;5051319;28;20029;-66
2021/06/29 08:30:40;;;;;;;4.45;1.00;;;22.40;90.70;;;;;;5051936;28;20458;-65
2021/06/29 08:33:10;;;;;;;1.38;0.77;;;22.60;86.60;;;;;;5051072;28;20025;-65
2021/06/29 08:35:37;;;;;;;2.30;0.98;;;22.60;82.20;;;;;;5052332;28;20112;-66
2021/06/29 08:38:02;;;;;;;2.95;1.27;;;22.70;82.60;;;;;;5050100;28;20037;-65
2021/06/29 08:40:28;;;;;;;2.85;1.00;;;22.90;79.80;;;;;;5052289;28;20040;-66
2021/06/29 08:42:54;;;;;;;2.92;1.15;;;23.00;78.00;;;;;;5051473;28;20017;-66
2021/06/29 08:45:20;;;;;;;1.15;1.02;;;23.10;78.50;;;;;;5051496;28;20659;-65
2021/06/29 08:47:47;;;;;;;2.78;1.02;;;23.20;75.80;;;;;;5052441;28;20033;-65
2021/06/29 08:50:14;;;;;;;3.22;0.90;;;23.20;77.20;;;;;;5051459;28;20301;-66
2021/06/29 08:52:41;;;;;;;1.20;1.10;;;23.30;75.60;;;;;;5051397;28;20103;-65
2021/06/29 08:55:08;;;;;;;0.85;0.82;;;23.40;75.30;;;;;;5050311;28;20470;-66
2021/06/29 08:57:34;;;;;;;1.20;1.02;;;23.40;76.10;;;;;;5051516;28;20025;-66
2021/06/29 09:00:00;;;;;;;3.38;0.90;;;23.60;76.20;;;;;;5051007;28;20041;-66
2021/06/29 09:02:27;;;;;;;1.60;1.20;;;23.60;74.40;;;;;;5051591;28;20025;-66
2021/06/29 09:04:56;;;;;;;1.23;1.02;;;23.60;74.20;;;;;;5051396;28;20024;-65
2021/06/29 09:07:24;;;;;;;0.93;0.93;;;23.70;74.80;;;;;;5051211;28;20481;-65
2021/06/29 09:09:56;;;;;;;1.10;1.10;;;23.80;74.70;;;;;;5051575;28;20037;-65
2021/06/29 09:12:48;;;;;;;1.90;1.00;;;24.00;72.50;;;;;;5051673;28;20401;-66
2021/06/29 09:15:35;;;;;;;1.27;1.10;;;24.00;73.90;;;;;;5050500;28;20118;-66
2021/06/29 09:18:06;;;;;;;3.13;1.00;;;24.10;74.30;;;;;;5050144;28;20029;-66
2021/06/29 09:20:35;;;;;;;2.42;1.20;;;24.20;73.60;;;;;;5051504;28;20085;-66
2021/06/29 09:23:12;;;;;;;1.88;1.10;;;24.40;73.80;;;;;;5048623;28;20033;-65
2021/06/29 09:25:42;;;;;;;1.65;1.02;;;24.50;74.20;;;;;;5051274;28;20033;-65
2021/06/29 09:28:12;;;;;;;1.70;1.20;;;24.50;73.30;;;;;;5050077;28;20033;-65
2021/06/29 09:30:38;;;;;;;;;;;24.60;72.60;;;;;;5050895;28;20061;-65
2021/06/29 09:33:11;;;;;;;3.00;1.00;;;24.70;72.70;;;;;;5050439;28;19904;-65
2021/06/29 09:35:39;;;;;;;1.05;0.90;;;25.00;70.80;;;;;;5051074;28;20040;-65
2021/06/29 09:38:06;;;;;;;0.90;0.82;;;25.00;70.90;;;;;;5050032;28;20025;-66
2021/06/29 09:40:34;;;;;;;2.95;1.08;;;25.20;68.80;;;;;;5051112;28;20470;-66
2021/06/29 09:43:13;;;;;;;3.95;0.93;;;25.30;70.60;;;;;;5048426;28;20104;-66
2021/06/29 09:45:47;;;;;;;1.17;1.02;;;25.50;69.50;;;;;;5050388;28;20370;-66
2021/06/29 09:48:34;;;;;;;2.88;1.10;;;25.70;68.10;;;;;;5049692;28;20618;-66
2021/06/29 09:51:06;;;;;;;3.45;1.10;;;25.90;68.10;;;;;;5049677;28;20037;-66
2021/06/29 09:53:38;;;;;;;3.75;0.98;;;26.30;66.50;;;;;;5050362;28;20056;-66
2021/06/29 09:56:06;;;;;;;5.45;0.93;;;26.50;65.60;;;;;;5049794;28;20485;-66
2021/06/29 09:58:32;;;;;;;1.25;1.10;;;26.60;65.70;;;;;;5050684;28;20531;-67
2021/06/29 10:01:00;;;;;;;1.20;0.90;;;26.60;64.40;;;;;;5050041;28;20033;-66
2021/06/29 10:03:37;;;;;;;3.22;1.00;;;26.70;63.80;;;;;;5051089;28;20025;-66
2021/06/29 10:06:13;;;;;;;1.48;0.90;;;26.80;64.60;;;;;;5050084;28;20386;-66
2021/06/29 10:08:41;;;;;;;1.50;1.10;;;26.60;64.40;;;;;;5051072;28;20048;-66
2021/06/29 10:11:14;;;;;;;2.92;0.93;;;26.50;64.70;;;;;;5050217;28;20473;-66
2021/06/29 10:14:02;;;;;;;4.00;1.55;;;26.30;64.40;;;;;;5051126;28;20032;-66
2021/06/29 10:16:44;;;;;;;1.23;1.00;;;26.10;65.10;;;;;;5051141;28;20037;-66
2021/06/29 10:21:49;;;;;;;2.90;1.50;;;25.90;67.30;;;;;;5050802;28;20029;-66
2021/06/29 10:24:18;;;;;;;0.95;0.95;;;26.00;65.30;;;;;;5049525;28;20599;-67
2021/06/29 10:26:45;;;;;;;2.33;1.10;;;26.10;65.50;;;;;;5050657;28;20471;-66
2021/06/29 10:29:13;;;;;;;2.13;1.10;;;26.30;64.00;;;;;;5049739;28;20033;-66
2021/06/29 10:31:51;;;;;;;1.80;1.40;;;26.30;65.10;;;;;;5050591;28;20485;-67
2021/06/29 10:34:18;;;;;;;5.95;1.65;;;26.40;65.50;;;;;;5050118;28;20033;-67
2021/06/29 10:36:48;;;;;;;1.65;1.38;;;26.50;64.40;;;;;;5050766;28;20025;-67
2021/06/29 10:39:17;;;;;;;3.55;1.13;;;26.40;64.30;;;;;;5049764;28;20120;-66
2021/06/29 10:41:46;;;;;;;1.98;1.20;;;26.50;64.30;;;;;;5050524;28;20025;-66
2021/06/29 10:44:14;;;;;;;3.08;1.33;;;26.50;63.60;;;;;;5050019;28;20886;-67
2021/06/29 10:46:48;;;;;;;1.88;1.40;;;26.50;63.50;;;;;;5050553;28;20033;-66
2021/06/29 10:49:42;;;;;;;2.33;1.60;;;26.50;62.90;;;;;;5052104;28;20029;-73
2021/06/29 10:52:23;;;;;;;3.50;1.63;;;26.30;64.20;;;;;;5043825;28;20398;-66
2021/06/29 10:54:49;;;;;;;3.55;1.58;;;26.00;64.60;;;;;;5054719;28;20063;-66
2021/06/29 10:57:19;;;;;;;6.60;1.70;;;25.80;65.10;;;;;;5054044;28;20613;-66
2021/06/29 10:59:49;;;;;;;1.77;1.63;;;25.50;65.70;;;;;;5053885;28;20037;-66
2021/06/29 11:02:36;;;;;;;2.38;1.50;;;25.40;67.20;;;;;;5053195;28;20039;-66
2021/06/29 11:05:07;;;;;;;8.50;1.63;;;25.30;66.40;;;;;;5053017;28;20041;-66
2021/06/29 11:07:36;;;;;;;1.45;1.35;;;25.30;67.00;;;;;;5046716;28;20491;-67
2021/06/29 11:10:11;;;;;;;4.50;0.88;;;25.40;66.60;;;;;;5053316;28;20041;-67
2021/06/29 11:12:53;;;;;;;1.67;1.33;;;25.80;65.20;;;;;;5053815;28;20117;-66
2021/06/29 11:15:39;;;;;;;1.85;1.15;;;26.20;64.90;;;;;;5053411;28;20029;-66
2021/06/29 11:18:05;;;;;;;3.83;1.48;;;26.60;63.80;;;;;;5051735;28;20044;-66
2021/06/29 11:20:41;;;;;;;1.35;1.25;;;27.00;61.30;;;;;;5053702;28;20029;-66
2021/06/29 11:23:19;;;;;;;1.30;1.20;;;27.40;60.30;;;;;;5052003;28;20496;-66
2021/06/29 11:25:55;;;;;;;3.10;1.20;;;27.70;60.60;;;;;;5053461;28;20033;-66
2021/06/29 11:28:25;;;;;;;2.47;1.13;;;28.00;58.80;;;;;;5053467;28;20203;-66
2021/06/29 11:30:51;;;;;;;1.35;1.20;;;28.00;59.90;;;;;;5053221;28;20493;-66
2021/06/29 11:33:29;;;;;;;3.13;1.35;;;28.30;59.50;;;;;;5052870;28;20029;-66
2021/06/29 11:35:55;;;;;;;1.30;1.20;;;28.60;58.50;;;;;;5051697;28;20027;-66
2021/06/29 11:38:41;;;;;;;4.40;1.13;;;28.70;57.10;;;;;;5053379;28;20037;-67
2021/06/29 11:41:25;;;;;;;2.80;1.13;;;28.90;56.90;;;;;;5052311;28;20399;-66
2021/06/29 11:44:06;;;;;;;3.03;1.23;;;28.80;56.00;;;;;;5052964;28;20060;-66
2021/06/29 11:47:06;;;;;;;2.60;1.33;;;28.70;56.00;;;;;;5053352;28;20040;-66
2021/06/29 11:49:42;;;;;;;3.00;1.30;;;28.40;56.40;;;;;;5049733;28;20036;-66
2021/06/29 11:52:13;;;;;;;2.33;1.48;;;28.10;58.30;;;;;;5051913;28;20104;-66
2021/06/29 11:54:44;;;;;;;5.13;1.30;;;28.10;57.80;;;;;;5052830;28;20048;-66
2021/06/29 11:57:16;;;;;;;2.95;1.30;;;28.10;58.50;;;;;;5052118;28;20041;-66
2021/06/29 11:59:42;;;;;;;1.33;1.23;;;28.10;57.40;;;;;;5052647;28;20047;-67
2021/06/29 12:02:10;;;;;;;1.50;0.82;;;28.00;58.60;;;;;;5051986;28;20390;-66
2021/06/29 12:04:51;;;;;;;2.70;1.15;;;28.10;58.90;;;;;;5051594;28;20017;-66
2021/06/29 12:07:35;;;;;;;1.38;1.10;;;28.00;59.50;;;;;;5051451;28;20033;-67
2021/06/29 12:10:14;;;;;;;1.42;1.17;;;28.00;57.00;;;;;;5048186;28;20235;-67
2021/06/29 12:12:42;;;;;;;0.98;0.98;;;27.90;58.30;;;;;;5053094;28;20087;-66
2021/06/29 12:15:12;;;;;;;2.45;1.10;;;27.80;58.60;;;;;;5051662;28;20037;-67
2021/06/29 12:18:00;;;;;;;2.55;1.67;;;27.90;58.00;;;;;;5044975;28;20025;-66
2021/06/29 12:20:30;;;;;;;1.45;1.10;;;28.10;57.60;;;;;;5051485;28;20060;-66
2021/06/29 12:22:56;;;;;;;1.95;1.60;;;28.30;56.90;;;;;;5052125;28;20108;-66
2021/06/29 12:25:44;;;;;;;3.00;1.27;;;28.30;57.20;;;;;;5051947;28;20112;-66
2021/06/29 12:28:21;;;;;;;2.55;1.40;;;28.20;56.40;;;;;;5052326;28;20033;-66
2021/06/29 12:31:01;;;;;;;1.20;1.10;;;27.90;56.70;;;;;;5051790;28;20087;-66
2021/06/29 12:33:34;;;;;;;1.33;1.20;;;27.60;59.90;;;;;;5052199;28;20033;-66
2021/06/29 12:36:01;;;;;;;4.68;1.35;;;27.40;60.10;;;;;;5048053;28;20040;-67
2021/06/29 12:38:30;;;;;;;1.58;1.20;;;27.50;59.50;;;;;;5051883;28;20080;-67
2021/06/29 12:40:59;;;;;;;3.17;1.30;;;27.60;59.70;;;;;;5051475;28;20431;-67
2021/06/29 12:43:29;;;;;;;2.65;1.10;;;27.60;58.30;;;;;;5052293;28;20064;-66
2021/06/29 12:45:56;;;;;;;2.65;1.10;;;27.60;59.00;;;;;;5051910;28;20025;-66
2021/06/29 12:48:24;;;;;;;1.73;1.20;;;27.50;58.10;;;;;;5051158;28;20044;-66
2021/06/29 12:51:02;;;;;;;1.15;0.82;;;27.30;58.80;;;;;;5044340;28;20029;-66
2021/06/29 12:53:29;;;;;;;2.00;1.20;;;27.20;60.20;;;;;;5051094;28;20111;-65
2021/06/29 12:56:18;;;;;;;2.75;0.98;;;27.10;60.00;;;;;;5051726;28;20025;-66
2021/06/29 12:58:46;;;;;;;1.60;1.02;;;27.10;60.10;;;;;;5051843;28;20031;-66